createdAt,value
2022-09-05T00:00:43.872Z,11.00
2022-09-05T00:02:06.918Z,8.40
2022-09-05T00:04:45.070Z,11.10
2022-09-05T00:06:07.658Z,9.50
2022-09-05T00:07:58.441Z,10.10
2022-09-05T00:08:49.662Z,9.10
2022-09-05T00:09:55.428Z,9.50
2022-09-05T00:11:39.961Z,11.50
2022-09-05T00:12:13.885Z,9.80
2022-09-05T00:13:22.635Z,11.09
2022-09-05T00:15:18.450Z,9.90
2022-09-05T00:15:57.070Z,10.00
2022-09-05T00:17:11.663Z,10.70
2022-09-05T00:23:19.933Z,11.10
2022-09-05T00:24:21.017Z,10.60
2022-09-05T00:24:21.836Z,9.80
2022-09-05T00:24:31.664Z,7.90
2022-09-05T00:24:37.159Z,8.00
2022-09-05T00:26:28.659Z,6.60
2022-09-05T00:27:40.603Z,2.20
2022-09-05T00:29:34.768Z,8.50
2022-09-05T00:31:51.113Z,11.50
2022-09-05T00:31:56.761Z,9.50
2022-09-05T00:33:17.933Z,9.20
2022-09-05T00:34:24.140Z,8.80
2022-09-05T00:35:55.336Z,7.10
2022-09-05T00:36:59.889Z,8.80
2022-09-05T00:38:14.443Z,7.40
2022-09-05T00:39:22.909Z,6.70
2022-09-05T00:40:39.034Z,5.90
2022-09-05T00:41:42.193Z,8.30
2022-09-05T00:42:46.924Z,7.00
2022-09-05T00:43:51.189Z,3.00
2022-09-05T00:45:03.168Z,5.50
2022-09-05T00:46:09.266Z,7.40
2022-09-05T00:47:16.172Z,9.00
2022-09-05T00:48:24.564Z,7.00
2022-09-05T00:49:33.241Z,6.00
2022-09-05T00:51:08.403Z,6.30
2022-09-05T00:52:25.514Z,6.90
2022-09-05T00:53:44.386Z,7.20
2022-09-05T00:55:05.236Z,7.90
2022-09-05T00:56:17.163Z,2.60
2022-09-05T00:57:22.895Z,7.30
2022-09-05T00:58:48.369Z,7.30
2022-09-05T01:00:06.874Z,6.50
2022-09-05T01:01:35.264Z,7.00
2022-09-05T01:03:14.201Z,5.90
2022-09-05T01:04:28.764Z,5.20
2022-09-05T01:05:46.722Z,4.50
2022-09-05T01:07:08.268Z,6.70
2022-09-05T01:08:33.913Z,5.60
2022-09-05T01:09:51.895Z,6.70
2022-09-05T01:11:26.695Z,6.00
2022-09-05T01:12:53.091Z,5.40
2022-09-05T01:14:03.971Z,7.60
2022-09-05T01:15:36.053Z,7.00
2022-09-05T01:17:05.812Z,5.10
2022-09-05T01:19:30.721Z,6.20
2022-09-05T01:20:54.773Z,6.80
2022-09-05T01:22:19.899Z,6.40
2022-09-05T01:23:47.080Z,7.20
2022-09-05T01:25:12.381Z,7.10
2022-09-05T01:26:18.226Z,6.90
2022-09-05T01:29:14.177Z,6.60
2022-09-05T01:29:18.116Z,8.00
2022-09-05T01:30:08.482Z,6.70
2022-09-05T01:31:29.728Z,6.10
2022-09-05T01:33:05.741Z,6.40
2022-09-05T01:34:33.454Z,7.10
2022-09-05T01:36:03.869Z,6.80
2022-09-05T01:37:02.590Z,6.10
2022-09-05T01:38:29.362Z,5.30
2022-09-05T01:40:10.547Z,6.50
2022-09-05T01:41:27.288Z,7.70
2022-09-05T01:42:38.986Z,6.40
2022-09-05T01:44:02.979Z,8.00
2022-09-05T01:45:11.533Z,7.20
2022-09-05T01:46:51.291Z,6.20
2022-09-05T01:47:59.813Z,2.60
2022-09-05T01:49:11.271Z,5.40
2022-09-05T01:50:45.287Z,6.70
2022-09-05T01:52:09.271Z,6.90
2022-09-05T01:53:46.012Z,7.50
2022-09-05T01:55:11.425Z,6.50
2022-09-05T01:56:34.462Z,6.90
2022-09-05T01:57:49.572Z,7.90
2022-09-05T01:58:58.408Z,6.50
2022-09-05T02:00:07.065Z,8.50
2022-09-05T02:01:25.357Z,5.70
2022-09-05T02:02:50.618Z,7.40
2022-09-05T02:04:00.083Z,8.00
2022-09-05T02:05:07.594Z,6.60
2022-09-05T02:06:49.099Z,6.60
2022-09-05T02:07:54.734Z,0.40
2022-09-05T02:09:20.536Z,4.90
2022-09-05T02:10:43.049Z,8.80
2022-09-05T02:11:55.452Z,8.50
2022-09-05T02:13:05.711Z,7.90
2022-09-05T02:15:24.747Z,8.50
2022-09-05T02:16:40.269Z,6.80
2022-09-05T02:17:50.367Z,8.50
2022-09-05T02:18:56.349Z,8.90
2022-09-05T02:20:23.507Z,9.30
2022-09-05T02:21:56.384Z,12.20
2022-09-05T02:23:24.762Z,10.00
2022-09-05T02:24:20.553Z,10.00
2022-09-05T02:26:01.744Z,8.80
2022-09-05T02:26:33.850Z,10.50
2022-09-05T02:28:04.027Z,9.10
2022-09-05T02:28:46.988Z,9.00
2022-09-05T02:30:07.501Z,7.00
2022-09-05T02:31:23.798Z,11.00
2022-09-05T02:32:40.503Z,8.10
2022-09-05T02:33:48.334Z,8.40
2022-09-05T02:34:59.699Z,8.90
2022-09-05T02:36:11.457Z,10.30
2022-09-05T02:40:22.023Z,8.50
2022-09-05T02:45:07.281Z,8.50
2022-09-05T02:45:08.247Z,5.40
2022-09-05T02:45:08.711Z,8.60
2022-09-05T02:45:09.613Z,8.90
2022-09-05T02:45:20.264Z,7.30
2022-09-05T02:45:52.178Z,5.50
2022-09-05T02:47:19.595Z,9.30
2022-09-05T02:48:34.202Z,9.40
2022-09-05T02:53:13.763Z,6.30
2022-09-05T02:57:25.826Z,9.00
2022-09-05T02:57:35.593Z,9.30
2022-09-05T02:57:36.693Z,11.30
2022-09-05T02:57:38.161Z,10.40
2022-09-05T02:57:41.150Z,9.90
2022-09-05T02:58:05.703Z,12.00
2022-09-05T02:59:09.790Z,8.00
2022-09-05T03:00:08.957Z,10.00
2022-09-05T03:01:20.546Z,10.10
2022-09-05T03:02:32.393Z,10.00
2022-09-05T03:03:51.072Z,10.40
2022-09-05T03:05:02.933Z,11.60
2022-09-05T03:06:34.188Z,11.20
2022-09-05T03:07:50.900Z,9.10
2022-09-05T03:09:17.001Z,10.40
2022-09-05T03:10:54.613Z,11.30
2022-09-05T03:12:28.692Z,10.30
2022-09-05T03:13:54.373Z,9.60
2022-09-05T03:15:24.636Z,12.10
2022-09-05T03:16:57.255Z,11.50
2022-09-05T03:18:22.823Z,11.80
2022-09-05T03:19:48.211Z,11.40
2022-09-05T03:21:09.728Z,10.70
2022-09-05T03:22:38.609Z,12.00
2022-09-05T03:24:02.199Z,11.90
2022-09-05T03:25:30.698Z,11.80
2022-09-05T03:27:02.498Z,11.80
2022-09-05T03:28:20.031Z,11.80
2022-09-05T03:29:45.232Z,13.00
2022-09-05T03:31:06.454Z,13.10
2022-09-05T03:32:47.109Z,11.30
2022-09-05T03:33:55.454Z,14.20
2022-09-05T03:35:10.176Z,11.90
2022-09-05T03:36:31.392Z,12.40
2022-09-05T03:38:05.868Z,12.40
2022-09-05T03:39:33.570Z,12.10
2022-09-05T03:40:42.402Z,13.90
2022-09-05T03:42:05.951Z,9.30
2022-09-05T03:43:21.951Z,15.20
2022-09-05T03:45:01.410Z,14.30
2022-09-05T03:46:20.018Z,8.90
2022-09-05T03:47:28.807Z,12.50
2022-09-05T03:48:49.947Z,11.40
2022-09-05T03:53:24.183Z,13.30
2022-09-05T03:57:08.931Z,14.70
2022-09-05T03:57:12.858Z,14.40
2022-09-05T03:57:17.190Z,7.80
2022-09-05T03:57:19.058Z,13.30
2022-09-05T03:57:42.279Z,12.20
2022-09-05T03:58:59.650Z,12.90
2022-09-05T04:00:03.273Z,13.00
2022-09-05T04:02:56.537Z,15.60
2022-09-05T04:06:15.728Z,13.80
2022-09-05T04:08:06.806Z,13.30
2022-09-05T04:08:10.455Z,13.50
2022-09-05T04:08:17.040Z,14.20
2022-09-05T04:08:24.732Z,14.80
2022-09-05T04:08:47.007Z,12.80
2022-09-05T04:09:55.780Z,13.70
2022-09-05T04:11:07.740Z,14.60
2022-09-05T04:12:40.363Z,15.40
2022-09-05T04:13:49.051Z,16.40
2022-09-05T04:14:58.338Z,16.00
2022-09-05T04:16:19.451Z,15.80
2022-09-05T04:17:44.743Z,14.30
2022-09-05T04:18:50.382Z,11.50
2022-09-05T04:20:04.869Z,14.50
2022-09-05T04:21:13.532Z,12.60
2022-09-05T04:22:42.886Z,11.80
2022-09-05T04:23:49.694Z,15.40
2022-09-05T04:25:11.669Z,15.20
2022-09-05T04:26:52.032Z,14.90
2022-09-05T04:28:16.108Z,16.10
2022-09-05T04:29:42.267Z,15.50
2022-09-05T04:30:54.534Z,13.90
2022-09-05T04:32:18.064Z,13.60
2022-09-05T04:33:36.409Z,15.80
2022-09-05T04:34:42.251Z,16.40
2022-09-05T04:35:57.004Z,16.10
2022-09-05T04:37:03.263Z,12.10
2022-09-05T04:38:14.910Z,15.80
2022-09-05T04:39:21.130Z,14.00
2022-09-05T04:40:39.266Z,17.70
2022-09-05T04:41:51.184Z,15.70
2022-09-05T04:42:54.316Z,16.70
2022-09-05T04:43:59.964Z,14.50
2022-09-05T04:45:10.405Z,16.80
2022-09-05T04:46:28.830Z,15.20
2022-09-05T04:47:44.303Z,16.90
2022-09-05T04:48:53.208Z,20.40
2022-09-05T04:50:12.675Z,14.80
2022-09-05T04:51:30.562Z,18.10
2022-09-05T04:52:55.297Z,15.50
2022-09-05T04:54:24.161Z,18.60
2022-09-05T04:55:46.857Z,17.30
2022-09-05T04:56:53.501Z,16.90
2022-09-05T04:58:02.166Z,19.30
2022-09-05T05:01:46.108Z,16.30
2022-09-05T05:06:04.359Z,15.50
2022-09-05T05:06:12.053Z,19.40
2022-09-05T05:06:13.899Z,18.50
2022-09-05T05:06:14.661Z,19.50
2022-09-05T05:06:16.109Z,19.10
2022-09-05T05:06:44.062Z,19.00
2022-09-05T05:07:49.791Z,18.40
2022-09-05T05:09:07.792Z,20.60
2022-09-05T05:11:34.863Z,19.70
2022-09-05T05:16:18.613Z,19.00
2022-09-05T05:17:54.143Z,20.30
2022-09-05T05:18:01.745Z,23.90
2022-09-05T05:18:06.249Z,23.40
2022-09-05T05:18:08.955Z,22.50
2022-09-05T05:18:12.790Z,22.20
2022-09-05T05:19:03.026Z,22.30
2022-09-05T05:20:41.978Z,18.40
2022-09-05T05:21:29.554Z,21.50
2022-09-05T05:22:31.646Z,18.00
2022-09-05T05:23:37.723Z,9.22
2022-09-05T05:24:44.773Z,21.50
2022-09-05T05:25:50.132Z,22.40
2022-09-05T05:26:59.056Z,22.20
2022-09-05T05:28:12.329Z,21.60
2022-09-05T05:29:24.074Z,19.80
2022-09-05T05:30:29.729Z,18.10
2022-09-05T05:31:35.448Z,20.60
2022-09-05T05:32:45.548Z,17.80
2022-09-05T05:33:49.117Z,21.00
2022-09-05T05:35:00.523Z,21.00
2022-09-05T05:36:06.941Z,23.70
2022-09-05T05:37:22.329Z,11.70
2022-09-05T05:38:45.077Z,21.50
2022-09-05T05:40:08.938Z,19.00
2022-09-05T05:41:18.783Z,20.30
2022-09-05T05:42:24.019Z,22.40
2022-09-05T05:43:29.311Z,24.50
2022-09-05T05:44:36.468Z,14.60
2022-09-05T05:45:38.822Z,24.90
2022-09-05T05:46:47.494Z,17.90
2022-09-05T05:47:53.143Z,27.60
2022-09-05T05:48:58.915Z,25.60
2022-09-05T05:50:11.469Z,24.50
2022-09-05T05:51:36.470Z,20.30
2022-09-05T05:52:42.013Z,21.50
2022-09-05T05:53:53.208Z,24.50
2022-09-05T05:55:28.445Z,23.10
2022-09-05T05:56:09.725Z,28.70
2022-09-05T05:57:27.433Z,27.30
2022-09-05T05:58:59.219Z,23.10
2022-09-05T06:00:27.916Z,24.90
2022-09-05T06:01:49.290Z,26.00
2022-09-05T06:03:26.954Z,28.80
2022-09-05T06:04:50.425Z,29.40
2022-09-05T06:06:21.723Z,28.90
2022-09-05T06:08:22.541Z,29.60
2022-09-05T06:14:49.298Z,32.50
2022-09-05T06:14:50.907Z,26.40
2022-09-05T06:14:57.361Z,30.90
2022-09-05T06:15:04.671Z,33.20
2022-09-05T06:15:23.391Z,27.80
2022-09-05T06:16:49.366Z,33.60
2022-09-05T06:18:22.517Z,28.90
2022-09-05T06:19:48.422Z,31.60
2022-09-05T06:22:10.457Z,37.90
2022-09-05T06:22:37.076Z,36.30
2022-09-05T06:24:11.663Z,37.50
2022-09-05T06:25:43.449Z,38.10
2022-09-05T06:26:58.824Z,41.20
2022-09-05T06:28:18.360Z,48.70
2022-09-05T06:29:46.944Z,47.80
2022-09-05T06:31:22.565Z,56.80
2022-09-05T06:32:27.225Z,54.00
2022-09-05T06:33:35.885Z,51.80
2022-09-05T06:35:01.087Z,54.00
2022-09-05T06:36:33.052Z,56.80
2022-09-05T06:37:54.591Z,69.30
2022-09-05T06:39:06.359Z,82.40
2022-09-05T06:40:31.904Z,67.00
2022-09-05T06:41:53.271Z,74.30
2022-09-05T06:44:58.382Z,82.70
2022-09-05T06:46:52.937Z,82.40
2022-09-05T06:47:38.685Z,73.40
2022-09-05T06:49:31.114Z,82.20
2022-09-05T06:50:27.090Z,90.00
2022-09-05T06:51:36.564Z,85.50
2022-09-05T06:52:49.844Z,93.90
2022-09-05T06:54:04.792Z,92.40
2022-09-05T06:55:30.119Z,90.70
2022-09-05T06:56:36.020Z,90.10
2022-09-05T06:58:05.406Z,84.00
2022-09-05T06:59:11.147Z,78.60
2022-09-05T07:00:25.220Z,86.20
2022-09-05T07:01:38.423Z,92.00
2022-09-05T07:02:58.858Z,89.90
2022-09-05T07:05:23.227Z,88.70
2022-09-05T07:05:40.035Z,83.70
2022-09-05T07:07:01.813Z,95.10
2022-09-05T07:07:53.966Z,74.90
2022-09-05T07:09:19.811Z,81.40
2022-09-05T07:10:39.183Z,78.70
2022-09-05T07:11:53.900Z,87.60
2022-09-05T07:14:22.270Z,100.30
2022-09-05T07:15:37.090Z,49.90
2022-09-05T07:17:07.329Z,69.40
2022-09-05T07:18:26.065Z,94.55
2022-09-05T07:19:37.591Z,85.20
2022-09-05T07:21:06.778Z,83.90
2022-09-05T07:22:46.040Z,87.90
2022-09-05T07:24:02.285Z,91.10
2022-09-05T07:24:53.729Z,76.30
2022-09-05T07:25:37.233Z,98.80
2022-09-05T07:26:53.751Z,93.40
2022-09-05T07:28:26.761Z,79.60
2022-09-05T07:29:04.941Z,69.80
2022-09-05T07:30:09.861Z,89.40
2022-09-05T07:31:27.457Z,85.00
2022-09-05T07:32:30.259Z,92.90
2022-09-05T07:33:35.066Z,93.10
2022-09-05T07:34:37.740Z,110.30
2022-09-05T07:35:41.606Z,106.10
2022-09-05T07:36:59.204Z,111.20
2022-09-05T07:38:05.749Z,105.70
2022-09-05T07:39:28.384Z,104.00
2022-09-05T07:40:24.935Z,112.00
2022-09-05T07:41:28.318Z,102.30
2022-09-05T07:43:46.810Z,117.70
2022-09-05T07:44:52.541Z,135.90
2022-09-05T07:46:07.090Z,130.30
2022-09-05T07:47:29.022Z,113.90
2022-09-05T07:48:38.818Z,113.10
2022-09-05T07:50:19.693Z,100.90
2022-09-05T07:56:49.330Z,109.60
2022-09-05T07:56:50.090Z,104.40
2022-09-05T07:56:52.643Z,90.00
2022-09-05T07:56:58.647Z,105.80
2022-09-05T07:57:04.796Z,113.70
2022-09-05T07:58:04.991Z,79.00
2022-09-05T07:59:10.710Z,88.10
2022-09-05T08:00:26.670Z,82.20
2022-09-05T08:01:24.439Z,75.10
2022-09-05T08:02:26.651Z,89.90
2022-09-05T08:03:28.740Z,81.20
2022-09-05T08:04:34.615Z,74.50
2022-09-05T08:05:40.413Z,80.10
2022-09-05T08:07:45.965Z,78.60
2022-09-05T08:07:53.027Z,72.40
2022-09-05T08:10:00.939Z,67.00
2022-09-05T08:10:15.858Z,77.20
2022-09-05T08:11:24.015Z,69.90
2022-09-05T08:12:29.744Z,74.10
2022-09-05T08:13:46.638Z,57.20
2022-09-05T08:15:10.273Z,72.90
2022-09-05T08:16:20.864Z,71.40
2022-09-05T08:17:29.920Z,74.10
2022-09-05T08:18:43.602Z,63.90
2022-09-05T08:19:52.317Z,72.50
2022-09-05T08:21:08.229Z,67.90
2022-09-05T08:22:15.064Z,71.70
2022-09-05T08:23:27.573Z,60.10
2022-09-05T08:24:35.957Z,70.20
2022-09-05T08:25:56.714Z,66.30
2022-09-05T08:26:52.118Z,64.00
2022-09-05T08:28:07.008Z,62.60
2022-09-05T08:29:15.784Z,65.40
2022-09-05T08:30:26.475Z,67.00
2022-09-05T08:31:29.435Z,64.50
2022-09-05T08:32:47.408Z,66.36
2022-09-05T08:33:57.943Z,64.90
2022-09-05T08:35:05.762Z,66.80
2022-09-05T08:36:45.074Z,64.40
2022-09-05T08:37:48.488Z,69.90
2022-09-05T08:38:51.620Z,67.70
2022-09-05T08:40:10.827Z,66.80
2022-09-05T08:41:13.047Z,76.70
2022-09-05T08:42:34.413Z,76.40
2022-09-05T08:46:48.710Z,70.00
2022-09-05T08:49:36.935Z,66.90
2022-09-05T08:50:41.595Z,60.10
2022-09-05T08:51:55.561Z,63.40
2022-09-05T08:53:46.482Z,64.70
2022-09-05T08:55:07.487Z,55.00
2022-09-05T08:56:21.782Z,61.30
2022-09-05T08:57:44.688Z,62.10
2022-09-05T08:59:32.203Z,56.20
2022-09-05T09:00:24.191Z,56.40
2022-09-05T09:02:14.487Z,52.50
2022-09-05T09:03:07.470Z,55.90
2022-09-05T09:04:16.668Z,55.70
2022-09-05T09:06:08.494Z,57.60
2022-09-05T09:07:27.820Z,56.10
2022-09-05T09:08:35.754Z,52.20
2022-09-05T09:09:47.170Z,50.70
2022-09-05T09:10:55.691Z,52.60
2022-09-05T09:12:16.509Z,55.20
2022-09-05T09:13:22.403Z,54.60
2022-09-05T09:14:38.328Z,54.10
2022-09-05T09:16:14.647Z,53.30
2022-09-05T09:17:23.203Z,49.20
2022-09-05T09:18:32.909Z,54.40
2022-09-05T09:19:42.099Z,56.40
2022-09-05T09:20:53.678Z,54.90
2022-09-05T09:22:06.056Z,54.60
2022-09-05T09:23:32.602Z,52.10
2022-09-05T09:25:08.254Z,55.10
2022-09-05T09:26:13.571Z,51.80
2022-09-05T09:27:41.746Z,48.40
2022-09-05T09:28:47.394Z,44.10
2022-09-05T09:29:46.017Z,44.80
2022-09-05T09:30:57.709Z,42.90
2022-09-05T09:32:12.525Z,43.90
2022-09-05T09:33:18.570Z,44.10
2022-09-05T09:34:30.979Z,38.50
2022-09-05T09:35:39.967Z,35.60
2022-09-05T09:36:46.116Z,37.30
2022-09-05T09:38:07.042Z,27.30
2022-09-05T09:39:38.100Z,20.10
2022-09-05T09:40:33.581Z,38.30
2022-09-05T09:41:39.215Z,37.30
2022-09-05T09:42:48.090Z,38.20
2022-09-05T09:44:17.279Z,34.60
2022-09-05T09:45:45.894Z,31.80
2022-09-05T09:46:51.254Z,24.90
2022-09-05T09:48:02.933Z,28.40
2022-09-05T09:49:23.272Z,29.20
2022-09-05T09:50:58.192Z,30.20
2022-09-05T09:52:20.646Z,30.50
2022-09-05T09:53:41.077Z,28.40
2022-09-05T09:55:05.993Z,31.50
2022-09-05T09:56:26.238Z,33.70
2022-09-05T09:58:06.536Z,26.90
2022-09-05T09:59:18.521Z,28.70
2022-09-05T10:00:26.821Z,26.20
2022-09-05T10:01:43.581Z,29.90
2022-09-05T10:06:43.741Z,28.70
2022-09-05T10:10:34.568Z,18.80
2022-09-05T10:10:44.109Z,29.10
2022-09-05T10:10:47.867Z,28.40
2022-09-05T10:10:51.624Z,30.70
2022-09-05T10:10:53.744Z,31.00
2022-09-05T10:11:54.715Z,31.70
2022-09-05T10:13:10.455Z,32.80
2022-09-05T10:14:49.145Z,33.90
2022-09-05T10:16:04.105Z,31.90
2022-09-05T10:17:12.527Z,31.90
2022-09-05T10:18:27.002Z,33.40
2022-09-05T10:21:15.583Z,30.80
2022-09-05T10:22:40.084Z,30.10
2022-09-05T10:23:44.548Z,32.30
2022-09-05T10:25:18.481Z,21.10
2022-09-05T10:26:37.564Z,24.00
2022-09-05T10:29:36.867Z,16.10
2022-09-05T10:30:41.852Z,25.90
2022-09-05T10:35:06.038Z,28.90
2022-09-05T10:35:17.388Z,28.80
2022-09-05T10:35:20.809Z,25.20
2022-09-05T10:36:20.416Z,28.10
2022-09-05T10:37:43.581Z,28.90
2022-09-05T10:38:55.656Z,25.50
2022-09-05T10:40:01.416Z,23.40
2022-09-05T10:41:20.812Z,27.80
2022-09-05T10:42:43.402Z,27.40
2022-09-05T10:44:00.261Z,25.60
2022-09-05T10:45:06.005Z,23.70
2022-09-05T10:47:40.260Z,21.10
2022-09-05T10:48:52.911Z,14.80
2022-09-05T10:50:14.621Z,19.40
2022-09-05T10:51:27.893Z,19.10
2022-09-05T10:52:28.367Z,14.40
2022-09-05T10:53:39.539Z,13.00
2022-09-05T10:54:50.536Z,12.10
2022-09-05T10:56:10.742Z,13.40
2022-09-05T10:57:33.491Z,8.30
2022-09-05T11:02:16.167Z,7.00
2022-09-05T11:02:22.309Z,5.80
2022-09-05T11:02:26.176Z,7.40
2022-09-05T11:02:47.215Z,4.70
2022-09-05T11:03:53.925Z,3.80
2022-09-05T11:05:23.605Z,3.10
2022-09-05T11:06:43.221Z,3.90
2022-09-05T11:08:09.720Z,2.50
2022-09-05T11:09:25.737Z,3.00
2022-09-05T11:10:48.621Z,3.70
2022-09-05T11:11:57.148Z,2.50
2022-09-05T11:13:19.107Z,3.30
2022-09-05T11:14:33.982Z,3.10
2022-09-05T11:16:03.724Z,2.70
2022-09-05T11:16:56.347Z,2.50
2022-09-05T11:18:05.009Z,4.00
2022-09-05T11:19:19.691Z,2.00
2022-09-05T11:20:35.144Z,2.40
2022-09-05T11:22:05.289Z,3.20
2022-09-05T11:23:04.703Z,2.90
2022-09-05T11:24:14.369Z,3.20
2022-09-05T11:25:24.509Z,3.30
2022-09-05T11:26:33.495Z,3.30
2022-09-05T11:27:51.711Z,4.50
2022-09-05T11:29:00.368Z,3.70
2022-09-05T11:30:08.772Z,2.70
2022-09-05T11:31:17.446Z,2.90
2022-09-05T11:39:35.082Z,2.30
2022-09-05T11:39:48.696Z,2.00
2022-09-05T11:39:59.807Z,2.90
2022-09-05T11:40:00.588Z,2.40
2022-09-05T11:40:06.571Z,1.60
2022-09-05T11:40:09.523Z,3.30
2022-09-05T11:40:56.926Z,2.00
2022-09-05T11:41:44.093Z,2.00
2022-09-05T11:43:05.566Z,0.40
2022-09-05T11:44:43.628Z,2.80
2022-09-05T11:46:01.722Z,2.00
2022-09-05T11:47:29.741Z,2.40
2022-09-05T11:48:36.217Z,1.80
2022-09-05T11:49:52.878Z,3.40
2022-09-05T11:51:33.664Z,3.20
2022-09-05T11:52:36.564Z,2.60
2022-09-05T11:53:59.871Z,2.30
2022-09-05T11:55:22.263Z,3.30
2022-09-05T11:56:41.873Z,2.50
2022-09-05T11:57:53.486Z,3.60
2022-09-05T11:59:10.172Z,2.20
2022-09-05T12:00:31.139Z,2.00
2022-09-05T12:02:16.904Z,1.70
2022-09-05T12:03:57.974Z,2.40
2022-09-05T12:04:40.119Z,2.90
2022-09-05T12:06:03.961Z,3.00
2022-09-05T12:08:39.494Z,3.80
2022-09-05T12:10:09.183Z,3.00
2022-09-05T12:11:43.485Z,3.30
2022-09-05T12:12:54.897Z,4.90
2022-09-05T12:14:25.782Z,4.00
2022-09-05T12:15:32.164Z,4.70
2022-09-05T12:16:56.754Z,3.80
2022-09-05T12:18:34.030Z,7.30
2022-09-05T12:19:43.632Z,4.70
2022-09-05T12:21:14.379Z,5.90
2022-09-05T12:22:18.650Z,5.50
2022-09-05T12:23:53.629Z,4.90
2022-09-05T12:25:25.185Z,1.10
2022-09-05T12:27:39.892Z,4.50
2022-09-05T12:27:42.719Z,6.50
2022-09-05T12:29:27.935Z,4.50
2022-09-05T12:30:00.425Z,4.00
2022-09-05T12:32:36.716Z,5.00
2022-09-05T12:34:39.804Z,4.60
2022-09-05T12:36:03.592Z,5.50
2022-09-05T12:36:10.395Z,3.50
2022-09-05T12:40:38.213Z,5.00
2022-09-05T12:40:44.685Z,4.80
2022-09-05T12:40:54.190Z,5.10
2022-09-05T12:41:36.334Z,5.00
2022-09-05T12:42:07.482Z,5.30
2022-09-05T12:42:22.257Z,3.40
2022-09-05T12:44:38.930Z,0.50
2022-09-05T12:44:45.962Z,5.70
2022-09-05T12:47:16.569Z,6.30
2022-09-05T12:48:26.343Z,7.80
2022-09-05T12:49:37.346Z,9.40
2022-09-05T12:50:43.186Z,8.20
2022-09-05T12:51:48.908Z,7.90
2022-09-05T12:52:54.543Z,9.40
2022-09-05T12:54:04.868Z,10.80
2022-09-05T12:55:12.509Z,7.80
2022-09-05T12:59:27.056Z,9.40
2022-09-05T13:02:57.665Z,10.10
2022-09-05T13:03:00.953Z,11.50
2022-09-05T13:03:01.265Z,10.00
2022-09-05T13:03:06.943Z,10.00
2022-09-05T13:03:09.580Z,6.80
2022-09-05T13:03:28.193Z,8.50
2022-09-05T13:04:29.697Z,9.80
2022-09-05T13:05:46.728Z,9.30
2022-09-05T13:06:58.519Z,9.00
2022-09-05T13:08:01.835Z,9.60
2022-09-05T13:10:22.820Z,10.20
2022-09-05T13:14:46.485Z,8.90
2022-09-05T13:14:49.038Z,8.00
2022-09-05T13:14:52.852Z,8.70
2022-09-05T13:14:58.212Z,8.00
2022-09-05T13:15:23.400Z,9.40
2022-09-05T13:16:25.612Z,10.20
2022-09-05T13:17:44.213Z,10.60
2022-09-05T13:18:48.065Z,9.20
2022-09-05T13:19:51.829Z,8.40
2022-09-05T13:21:03.184Z,7.30
2022-09-05T13:22:07.085Z,9.20
2022-09-05T13:23:15.486Z,5.90
2022-09-05T13:24:27.409Z,9.20
2022-09-05T13:25:31.973Z,9.20
2022-09-05T13:26:55.989Z,8.40
2022-09-05T13:28:05.180Z,8.10
2022-09-05T13:29:20.483Z,6.60
2022-09-05T13:35:31.674Z,5.40
2022-09-05T13:37:58.986Z,12.80
2022-09-05T13:37:59.332Z,12.40
2022-09-05T13:38:04.487Z,14.60
2022-09-05T13:38:04.488Z,13.80
2022-09-05T13:38:12.827Z,11.80
2022-09-05T13:38:17.980Z,21.70
2022-09-05T13:38:56.853Z,16.80
2022-09-05T13:40:09.115Z,13.80
2022-09-05T13:41:27.862Z,11.00
2022-09-05T13:42:25.806Z,12.40
2022-09-05T13:43:35.762Z,11.90
2022-09-05T13:44:41.420Z,14.70
2022-09-05T13:45:53.996Z,14.90
2022-09-05T13:47:29.801Z,17.30
2022-09-05T13:48:25.384Z,15.20
2022-09-05T13:49:34.544Z,20.70
2022-09-05T13:50:40.792Z,18.70
2022-09-05T13:51:46.765Z,15.10
2022-09-05T13:52:55.625Z,19.40
2022-09-05T13:54:13.526Z,19.20
2022-09-05T13:55:22.196Z,21.30
2022-09-05T13:56:30.606Z,13.40
2022-09-05T13:57:42.089Z,13.20
2022-09-05T13:58:52.427Z,14.30
2022-09-05T14:00:07.692Z,14.70
2022-09-05T14:01:33.653Z,11.70
2022-09-05T14:03:39.261Z,8.20
2022-09-05T14:05:07.335Z,8.70
2022-09-05T14:05:57.156Z,8.50
2022-09-05T14:08:43.156Z,7.40
2022-09-05T14:10:18.854Z,10.90
2022-09-05T14:11:45.108Z,9.40
2022-09-05T14:12:56.288Z,8.50
2022-09-05T14:14:11.023Z,5.90
2022-09-05T14:15:25.631Z,6.70
2022-09-05T14:16:34.765Z,8.60
2022-09-05T14:18:11.589Z,8.60
2022-09-05T14:19:16.964Z,9.00
2022-09-05T14:20:24.272Z,9.10
2022-09-05T14:21:30.896Z,7.40
2022-09-05T14:22:48.612Z,7.90
2022-09-05T14:24:03.328Z,9.60
2022-09-05T14:25:08.148Z,10.50
2022-09-05T14:26:15.051Z,8.60
2022-09-05T14:27:31.740Z,10.90
2022-09-05T14:28:27.642Z,12.40
2022-09-05T14:29:53.525Z,13.60
2022-09-05T14:33:11.035Z,14.20
2022-09-05T14:37:39.203Z,15.60
2022-09-05T14:37:41.620Z,15.80
2022-09-05T14:37:50.480Z,15.40
2022-09-05T14:37:59.418Z,13.50
2022-09-05T14:38:00.594Z,14.10
2022-09-05T14:39:00.679Z,13.80
2022-09-05T14:40:39.509Z,12.30
2022-09-05T14:42:09.632Z,13.70
2022-09-05T14:43:24.430Z,11.20
2022-09-05T14:44:43.869Z,11.70
2022-09-05T14:46:03.484Z,8.70
2022-09-05T14:47:42.946Z,7.50
2022-09-05T14:49:00.347Z,8.80
2022-09-05T14:50:17.474Z,10.50
2022-09-05T14:51:36.152Z,11.20
2022-09-05T14:52:44.057Z,11.30
2022-09-05T14:55:21.039Z,11.80
2022-09-05T14:57:18.946Z,13.40
2022-09-05T15:02:45.932Z,11.10
2022-09-05T15:02:53.581Z,8.50
2022-09-05T15:02:53.944Z,9.30
2022-09-05T15:02:56.843Z,8.20
2022-09-05T15:04:44.834Z,4.30
2022-09-05T15:05:47.855Z,6.20
2022-09-05T15:07:02.925Z,9.20
2022-09-05T15:09:28.629Z,8.20
2022-09-05T15:12:05.626Z,8.30
2022-09-05T15:12:14.877Z,10.90
2022-09-05T15:12:20.170Z,11.60
2022-09-05T15:12:45.500Z,11.20
2022-09-05T15:13:45.866Z,11.50
2022-09-05T15:15:09.593Z,12.40
2022-09-05T15:16:14.860Z,11.70
2022-09-05T15:17:23.597Z,13.00
2022-09-05T15:18:29.254Z,14.30
2022-09-05T15:20:05.443Z,13.60
2022-09-05T15:20:57.888Z,11.80
2022-09-05T15:22:03.545Z,14.30
2022-09-05T15:23:16.079Z,15.10
2022-09-05T15:24:24.841Z,13.20
2022-09-05T15:25:29.371Z,12.80
2022-09-05T15:26:32.589Z,10.90
2022-09-05T15:27:34.433Z,9.40
2022-09-05T15:28:40.993Z,8.78
2022-09-05T15:29:46.625Z,8.30
2022-09-05T15:31:01.564Z,2.40
2022-09-05T15:32:20.698Z,7.00
2022-09-05T15:33:26.639Z,5.50
2022-09-05T15:34:33.359Z,6.00
2022-09-05T15:35:38.378Z,6.70
2022-09-05T15:36:40.471Z,4.90
2022-09-05T15:37:43.161Z,5.10
2022-09-05T15:38:56.234Z,5.00
2022-09-05T15:40:23.669Z,4.00
2022-09-05T15:41:22.857Z,4.00
2022-09-05T15:42:29.166Z,4.50
2022-09-05T15:43:32.586Z,4.40
2022-09-05T15:44:53.248Z,4.20
2022-09-05T15:45:39.011Z,3.00
2022-09-05T15:46:53.264Z,4.90
2022-09-05T15:48:17.071Z,4.00
2022-09-05T15:49:41.171Z,5.10
2022-09-05T15:50:49.080Z,5.00
2022-09-05T15:51:57.718Z,4.70
2022-09-05T15:52:59.812Z,5.60
2022-09-05T15:54:02.064Z,2.50
2022-09-05T15:55:14.343Z,5.40
2022-09-05T15:56:20.603Z,5.30
2022-09-05T15:57:28.568Z,4.00
2022-09-05T15:58:54.050Z,6.00
2022-09-05T15:59:40.467Z,6.20
2022-09-05T16:00:51.769Z,5.80
2022-09-05T16:02:00.394Z,7.70
2022-09-05T16:06:12.671Z,8.00
2022-09-05T16:07:39.234Z,5.30
2022-09-05T16:10:29.443Z,7.20
2022-09-05T16:10:39.701Z,4.50
2022-09-05T16:10:41.555Z,6.60
2022-09-05T16:10:43.465Z,5.70
2022-09-05T16:10:50.408Z,5.40
2022-09-05T16:12:09.179Z,4.70
2022-09-05T16:12:46.056Z,5.00
2022-09-05T16:13:53.345Z,5.30
2022-09-05T16:15:37.983Z,6.80
2022-09-05T16:21:38.354Z,5.70
2022-09-05T16:23:14.143Z,6.00
2022-09-05T16:23:23.409Z,4.50
2022-09-05T16:23:29.337Z,4.00
2022-09-05T16:23:31.194Z,1.60
2022-09-05T16:23:32.674Z,4.50
2022-09-05T16:23:33.472Z,2.90
2022-09-05T16:24:24.848Z,1.40
2022-09-05T16:25:29.294Z,2.10
2022-09-05T16:26:36.253Z,2.00
2022-09-05T16:27:51.003Z,2.50
2022-09-05T16:29:02.662Z,2.20
2022-09-05T16:30:06.699Z,2.20
2022-09-05T16:31:24.262Z,1.80
2022-09-05T16:32:31.517Z,2.50
2022-09-05T16:33:34.630Z,2.10
2022-09-05T16:34:40.383Z,1.40
2022-09-05T16:37:08.136Z,1.60
2022-09-05T16:39:49.077Z,2.00
2022-09-05T16:40:57.964Z,1.90
2022-09-05T16:42:07.831Z,2.00
2022-09-05T16:43:13.596Z,2.50
2022-09-05T16:44:28.796Z,0.00
2022-09-05T16:45:54.727Z,2.00
2022-09-05T16:47:06.778Z,1.40
2022-09-05T16:48:40.056Z,1.60
2022-09-05T16:50:04.141Z,1.50
2022-09-05T16:51:34.875Z,1.00
2022-09-05T16:52:40.277Z,1.00
2022-09-05T16:54:03.827Z,0.00
2022-09-05T16:55:12.195Z,0.70
2022-09-05T16:56:24.237Z,1.40
2022-09-05T16:57:30.454Z,1.40